sensor_id;sensor_type;location;lat;lon;timestamp;pressure;altitude;pressure_sealevel;temperature
20490;BMP280;10403;54.092;12.122;2024-01-16T00:01:06;100248.06;;;1.03
20490;BMP280;10403;54.092;12.122;2024-01-16T00:03:33;100254.84;;;0.98
20490;BMP280;10403;54.092;12.122;2024-01-16T00:06:01;100234.84;;;0.83
20490;BMP280;10403;54.092;12.122;2024-01-16T00:08:28;100254.69;;;0.90
20490;BMP280;10403;54.092;12.122;2024-01-16T00:10:56;100252.97;;;0.88
20490;BMP280;10403;54.092;12.122;2024-01-16T00:13:23;100270.22;;;0.93
20490;BMP280;10403;54.092;12.122;2024-01-16T00:15:50;100273.63;;;0.92
20490;BMP280;10403;54.092;12.122;2024-01-16T00:18:18;100249.41;;;0.81
20490;BMP280;10403;54.092;12.122;2024-01-16T00:20:46;100261.44;;;0.82
20490;BMP280;10403;54.092;12.122;2024-01-16T00:23:13;100251.75;;;0.69
20490;BMP280;10403;54.092;12.122;2024-01-16T00:25:40;100253.47;;;0.70
20490;BMP280;10403;54.092;12.122;2024-01-16T00:28:08;100249.97;;;0.65
20490;BMP280;10403;54.092;12.122;2024-01-16T00:30:35;100284.59;;;0.82
20490;BMP280;10403;54.092;12.122;2024-01-16T00:33:03;100274.22;;;0.79
20490;BMP280;10403;54.092;12.122;2024-01-16T00:35:31;100272.47;;;0.75
20490;BMP280;10403;54.092;12.122;2024-01-16T00:37:59;100300.25;;;0.93
20490;BMP280;10403;54.092;12.122;2024-01-16T00:40:26;100306.25;;;0.93
20490;BMP280;10403;54.092;12.122;2024-01-16T00:42:53;100285.41;;;0.80
20490;BMP280;10403;54.092;12.122;2024-01-16T00:45:21;100318.34;;;0.97
20490;BMP280;10403;54.092;12.122;2024-01-16T00:47:48;100313.09;;;0.93
20490;BMP280;10403;54.092;12.122;2024-01-16T00:50:16;100318.34;;;0.97
20490;BMP280;10403;54.092;12.122;2024-01-16T00:52:43;100306.28;;;0.95
20490;BMP280;10403;54.092;12.122;2024-01-16T00:55:11;100308.00;;;0.94
20490;BMP280;10403;54.092;12.122;2024-01-16T00:57:38;100315.81;;;1.00
20490;BMP280;10403;54.092;12.122;2024-01-16T01:00:06;100320.97;;;1.00
20490;BMP280;10403;54.092;12.122;2024-01-16T01:02:34;100330.50;;;1.04
20490;BMP280;10403;54.092;12.122;2024-01-16T01:05:01;100328.78;;;1.05
20490;BMP280;10403;54.092;12.122;2024-01-16T01:07:29;100336.63;;;1.13
20490;BMP280;10403;54.092;12.122;2024-01-16T01:09:56;100300.31;;;0.96
20490;BMP280;10403;54.092;12.122;2024-01-16T01:12:24;100333.22;;;1.14
20490;BMP280;10403;54.092;12.122;2024-01-16T01:14:52;100360.03;;;1.25
20490;BMP280;10403;54.092;12.122;2024-01-16T01:17:19;100356.50;;;1.20
20490;BMP280;10403;54.092;12.122;2024-01-16T01:19:47;100346.03;;;1.10
20490;BMP280;10403;54.092;12.122;2024-01-16T01:22:14;100372.09;;;1.26
20490;BMP280;10403;54.092;12.122;2024-01-16T01:24:41;100379.78;;;1.24
20490;BMP280;10403;54.092;12.122;2024-01-16T01:27:08;100374.50;;;1.18
20490;BMP280;10403;54.092;12.122;2024-01-16T01:29:36;100355.44;;;1.07
20490;BMP280;10403;54.092;12.122;2024-01-16T01:32:03;100383.09;;;1.19
20490;BMP280;10403;54.092;12.122;2024-01-16T01:34:31;100373.59;;;1.15
20490;BMP280;10403;54.092;12.122;2024-01-16T01:36:58;100380.41;;;1.13
20490;BMP280;10403;54.092;12.122;2024-01-16T01:39:26;100389.09;;;1.18
20490;BMP280;10403;54.092;12.122;2024-01-16T01:41:54;100376.91;;;1.09
20490;BMP280;10403;54.092;12.122;2024-01-16T01:44:22;100390.78;;;1.16
20490;BMP280;10403;54.092;12.122;2024-01-16T01:46:54;100363.84;;;0.98
20490;BMP280;10403;54.092;12.122;2024-01-16T01:49:25;100399.47;;;1.21
20490;BMP280;10403;54.092;12.122;2024-01-16T01:51:54;100406.34;;;1.22
20490;BMP280;10403;54.092;12.122;2024-01-16T01:54:22;100385.56;;;1.13
20490;BMP280;10403;54.092;12.122;2024-01-16T01:56:56;100400.41;;;1.26
20490;BMP280;10403;54.092;12.122;2024-01-16T01:59:25;100397.00;;;1.28
20490;BMP280;10403;54.092;12.122;2024-01-16T02:01:53;100382.25;;;1.20
20490;BMP280;10403;54.092;12.122;2024-01-16T02:04:22;100378.03;;;1.23
20490;BMP280;10403;54.092;12.122;2024-01-16T02:06:50;100403.19;;;1.38
20490;BMP280;10403;54.092;12.122;2024-01-16T02:09:17;100403.25;;;1.41
20490;BMP280;10403;54.092;12.122;2024-01-16T02:11:44;100402.47;;;1.45
20490;BMP280;10403;54.092;12.122;2024-01-16T02:14:12;100390.28;;;1.35
20490;BMP280;10403;54.092;12.122;2024-01-16T02:16:41;100411.09;;;1.48
20490;BMP280;10403;54.092;12.122;2024-01-16T02:19:09;100380.81;;;1.34
20490;BMP280;10403;54.092;12.122;2024-01-16T02:21:48;100409.38;;;1.47
20490;BMP280;10403;54.092;12.122;2024-01-16T02:24:18;100398.03;;;1.38
20490;BMP280;10403;54.092;12.122;2024-01-16T02:26:46;100415.41;;;1.48
20490;BMP280;10403;54.092;12.122;2024-01-16T02:29:14;100383.25;;;1.26
20490;BMP280;10403;54.092;12.122;2024-01-16T02:31:43;100400.63;;;1.38
20490;BMP280;10403;54.092;12.122;2024-01-16T02:34:11;100410.94;;;1.39
20490;BMP280;10403;54.092;12.122;2024-01-16T02:36:38;100399.72;;;1.34
20490;BMP280;10403;54.092;12.122;2024-01-16T02:39:06;100398.84;;;1.34
20490;BMP280;10403;54.092;12.122;2024-01-16T02:41:33;100404.84;;;1.33
20490;BMP280;10403;54.092;12.122;2024-01-16T02:44:01;100429.09;;;1.44
20490;BMP280;10403;54.092;12.122;2024-01-16T02:46:28;100432.50;;;1.43
20490;BMP280;10403;54.092;12.122;2024-01-16T02:48:56;100415.22;;;1.37
20490;BMP280;10403;54.092;12.122;2024-01-16T02:51:23;100436.81;;;1.44
20490;BMP280;10403;54.092;12.122;2024-01-16T02:53:51;100422.03;;;1.34
20490;BMP280;10403;54.092;12.122;2024-01-16T02:56:18;100447.97;;;1.43
20490;BMP280;10403;54.092;12.122;2024-01-16T02:58:45;100444.44;;;1.39
20490;BMP280;10403;54.092;12.122;2024-01-16T03:01:14;100431.41;;;1.30
20490;BMP280;10403;54.092;12.122;2024-01-16T03:03:42;100428.75;;;1.26
20490;BMP280;10403;54.092;12.122;2024-01-16T03:06:10;100428.75;;;1.26
20490;BMP280;10403;54.092;12.122;2024-01-16T03:08:37;100446.13;;;1.36
20490;BMP280;10403;54.092;12.122;2024-01-16T03:11:05;100462.53;;;1.41
20490;BMP280;10403;54.092;12.122;2024-01-16T03:13:35;100440.81;;;1.27
20490;BMP280;10403;54.092;12.122;2024-01-16T03:16:07;100464.19;;;1.39
20490;BMP280;10403;54.092;12.122;2024-01-16T03:18:34;100450.31;;;1.31
20490;BMP280;10403;54.092;12.122;2024-01-16T03:21:02;100481.53;;;1.46
20490;BMP280;10403;54.092;12.122;2024-01-16T03:23:30;100459.84;;;1.35
20490;BMP280;10403;54.092;12.122;2024-01-16T03:25:57;100475.47;;;1.44
20490;BMP280;10403;54.092;12.122;2024-01-16T03:28:25;100457.19;;;1.32
20490;BMP280;10403;54.092;12.122;2024-01-16T03:30:53;100455.47;;;1.31
20490;BMP280;10403;54.092;12.122;2024-01-16T03:33:21;100466.66;;;1.33
20490;BMP280;10403;54.092;12.122;2024-01-16T03:35:49;100487.56;;;1.48
20490;BMP280;10403;54.092;12.122;2024-01-16T03:38:16;100457.16;;;1.30
20490;BMP280;10403;54.092;12.122;2024-01-16T03:40:44;100488.41;;;1.47
20490;BMP280;10403;54.092;12.122;2024-01-16T03:43:11;100498.00;;;1.54
20490;BMP280;10403;54.092;12.122;2024-01-16T03:45:38;100486.81;;;1.54
20490;BMP280;10403;54.092;12.122;2024-01-16T03:48:06;100490.28;;;1.54
20490;BMP280;10403;54.092;12.122;2024-01-16T03:50:34;100465.97;;;1.41
20490;BMP280;10403;54.092;12.122;2024-01-16T03:53:03;100489.34;;;1.51
20490;BMP280;10403;54.092;12.122;2024-01-16T03:55:33;100485.91;;;1.52
20490;BMP280;10403;54.092;12.122;2024-01-16T03:58:01;100482.41;;;1.48
20490;BMP280;10403;54.092;12.122;2024-01-16T04:00:28;100478.88;;;1.43
20490;BMP280;10403;54.092;12.122;2024-01-16T04:02:55;100480.66;;;1.47
20490;BMP280;10403;54.092;12.122;2024-01-16T04:05:23;100491.97;;;1.54
20490;BMP280;10403;54.092;12.122;2024-01-16T04:07:50;100497.09;;;1.52
20490;BMP280;10403;54.092;12.122;2024-01-16T04:10:19;100476.28;;;1.41
20490;BMP280;10403;54.092;12.122;2024-01-16T04:12:46;100462.47;;;1.36
20490;BMP280;10403;54.092;12.122;2024-01-16T04:15:14;100481.53;;;1.46
20490;BMP280;10403;54.092;12.122;2024-01-16T04:17:41;100484.91;;;1.43
20490;BMP280;10403;54.092;12.122;2024-01-16T04:20:09;100480.50;;;1.38
20490;BMP280;10403;54.092;12.122;2024-01-16T04:22:37;100469.09;;;1.24
20490;BMP280;10403;54.092;12.122;2024-01-16T04:25:04;100487.38;;;1.39
20490;BMP280;10403;54.092;12.122;2024-01-16T04:27:32;100460.47;;;1.23
20490;BMP280;10403;54.092;12.122;2024-01-16T04:30:00;100509.91;;;1.49
20490;BMP280;10403;54.092;12.122;2024-01-16T04:32:27;100494.34;;;1.43
20490;BMP280;10403;54.092;12.122;2024-01-16T04:34:54;100463.13;;;1.28
20490;BMP280;10403;54.092;12.122;2024-01-16T04:37:22;100466.56;;;1.28
20490;BMP280;10403;54.092;12.122;2024-01-16T04:39:49;100485.66;;;1.38
20490;BMP280;10403;54.092;12.122;2024-01-16T04:42:17;100495.25;;;1.45
20490;BMP280;10403;54.092;12.122;2024-01-16T04:44:45;100503.06;;;1.49
20490;BMP280;10403;54.092;12.122;2024-01-16T04:47:12;100504.75;;;1.49
20490;BMP280;10403;54.092;12.122;2024-01-16T04:49:42;100499.59;;;1.49
20490;BMP280;10403;54.092;12.122;2024-01-16T04:52:10;100458.75;;;1.22
20490;BMP280;10403;54.092;12.122;2024-01-16T04:54:37;100463.03;;;1.22
20490;BMP280;10403;54.092;12.122;2024-01-16T04:57:05;100484.75;;;1.34
20490;BMP280;10403;54.092;12.122;2024-01-16T04:59:32;100442.06;;;1.03
20490;BMP280;10403;54.092;12.122;2024-01-16T05:02:00;100475.97;;;1.25
20490;BMP280;10403;54.092;12.122;2024-01-16T05:04:28;100462.84;;;1.13
20490;BMP280;10403;54.092;12.122;2024-01-16T05:06:55;100500.97;;;1.30
20490;BMP280;10403;54.092;12.122;2024-01-16T05:09:22;100501.78;;;1.28
20490;BMP280;10403;54.092;12.122;2024-01-16T05:11:50;100468.66;;;1.02
20490;BMP280;10403;54.092;12.122;2024-01-16T05:14:17;100485.13;;;1.10
20490;BMP280;10403;54.092;12.122;2024-01-16T05:16:44;100482.59;;;1.12
20490;BMP280;10403;54.092;12.122;2024-01-16T05:19:12;100495.56;;;1.17
20490;BMP280;10403;54.092;12.122;2024-01-16T05:21:41;100514.63;;;1.25
20490;BMP280;10403;54.092;12.122;2024-01-16T05:24:08;100457.44;;;1.00
20490;BMP280;10403;54.092;12.122;2024-01-16T05:26:35;100507.78;;;1.28
20490;BMP280;10403;54.092;12.122;2024-01-16T05:29:03;100516.47;;;1.32
20490;BMP280;10403;54.092;12.122;2024-01-16T05:31:30;100471.34;;;1.08
20490;BMP280;10403;54.092;12.122;2024-01-16T05:33:58;100462.78;;;1.09
20490;BMP280;10403;54.092;12.122;2024-01-16T05:36:26;100450.63;;;1.02
20490;BMP280;10403;54.092;12.122;2024-01-16T05:38:54;100500.19;;;1.33
20490;BMP280;10403;54.092;12.122;2024-01-16T05:41:21;100403.81;;;0.80
20490;BMP280;10403;54.092;12.122;2024-01-16T05:43:49;100427.31;;;0.95
20490;BMP280;10403;54.092;12.122;2024-01-16T05:46:17;100509.00;;;1.47
20490;BMP280;10403;54.092;12.122;2024-01-16T05:48:44;100431.75;;;1.03
20490;BMP280;10403;54.092;12.122;2024-01-16T05:51:12;100395.22;;;0.79
20490;BMP280;10403;54.092;12.122;2024-01-16T05:53:40;100400.56;;;0.88
20490;BMP280;10403;54.092;12.122;2024-01-16T05:56:07;100450.00;;;1.14
20490;BMP280;10403;54.092;12.122;2024-01-16T05:58:35;100410.91;;;0.91
20490;BMP280;10403;54.092;12.122;2024-01-16T06:01:05;100422.06;;;0.90
20490;BMP280;10403;54.092;12.122;2024-01-16T06:03:33;100388.41;;;0.81
20490;BMP280;10403;54.092;12.122;2024-01-16T06:06:00;100428.38;;;1.06
20490;BMP280;10403;54.092;12.122;2024-01-16T06:08:28;100374.59;;;0.76
20490;BMP280;10403;54.092;12.122;2024-01-16T06:10:57;100370.16;;;0.69
20490;BMP280;10403;54.092;12.122;2024-01-16T06:13:24;100424.81;;;0.99
20490;BMP280;10403;54.092;12.122;2024-01-16T06:15:52;100409.16;;;0.87
20490;BMP280;10403;54.092;12.122;2024-01-16T06:18:19;100502.75;;;1.33
20490;BMP280;10403;54.092;12.122;2024-01-16T06:20:46;100381.91;;;0.56
20490;BMP280;10403;54.092;12.122;2024-01-16T06:23:14;100375.88;;;0.54
20490;BMP280;10403;54.092;12.122;2024-01-16T06:25:41;100412.31;;;0.74
20490;BMP280;10403;54.092;12.122;2024-01-16T06:28:09;100444.34;;;0.90
20490;BMP280;10403;54.092;12.122;2024-01-16T06:30:36;100359.03;;;0.29
20490;BMP280;10403;54.092;12.122;2024-01-16T06:33:04;100366.75;;;0.29
20490;BMP280;10403;54.092;12.122;2024-01-16T06:35:32;100540.50;;;1.31
20490;BMP280;10403;54.092;12.122;2024-01-16T06:37:59;100510.09;;;1.13
20490;BMP280;10403;54.092;12.122;2024-01-16T06:40:26;100543.91;;;1.30
20490;BMP280;10403;54.092;12.122;2024-01-16T06:42:54;100502.22;;;1.05
20490;BMP280;10403;54.092;12.122;2024-01-16T06:45:21;100527.44;;;1.22
20490;BMP280;10403;54.092;12.122;2024-01-16T06:47:49;100536.97;;;1.26
20490;BMP280;10403;54.092;12.122;2024-01-16T06:50:18;100455.34;;;0.81
20490;BMP280;10403;54.092;12.122;2024-01-16T06:52:46;100553.41;;;1.32
20490;BMP280;10403;54.092;12.122;2024-01-16T06:55:14;100469.13;;;0.83
20490;BMP280;10403;54.092;12.122;2024-01-16T06:57:41;100540.38;;;1.25
20490;BMP280;10403;54.092;12.122;2024-01-16T07:00:10;100518.56;;;1.09
20490;BMP280;10403;54.092;12.122;2024-01-16T07:02:37;100426.41;;;0.51
20490;BMP280;10403;54.092;12.122;2024-01-16T07:05:05;100419.34;;;0.42
20490;BMP280;10403;54.092;12.122;2024-01-16T07:07:32;100565.28;;;1.24
20490;BMP280;10403;54.092;12.122;2024-01-16T07:10:00;100513.06;;;0.91
20490;BMP280;10403;54.092;12.122;2024-01-16T07:12:27;100502.63;;;0.85
20490;BMP280;10403;54.092;12.122;2024-01-16T07:14:54;100471.94;;;0.55
20490;BMP280;10403;54.092;12.122;2024-01-16T07:17:22;100558.91;;;1.08
20490;BMP280;10403;54.092;12.122;2024-01-16T07:19:49;100573.56;;;1.11
20490;BMP280;10403;54.092;12.122;2024-01-16T07:22:17;100490.03;;;0.58
20490;BMP280;10403;54.092;12.122;2024-01-16T07:24:44;100582.94;;;1.06
20490;BMP280;10403;54.092;12.122;2024-01-16T07:27:11;100459.44;;;0.32
20490;BMP280;10403;54.092;12.122;2024-01-16T07:29:39;100567.31;;;1.00
20490;BMP280;10403;54.092;12.122;2024-01-16T07:32:06;100529.59;;;0.63
20490;BMP280;10403;54.092;12.122;2024-01-16T07:34:34;100545.28;;;0.73
20490;BMP280;10403;54.092;12.122;2024-01-16T07:37:01;100552.16;;;0.73
20490;BMP280;10403;54.092;12.122;2024-01-16T07:39:29;100574.59;;;0.80
20490;BMP280;10403;54.092;12.122;2024-01-16T07:41:56;100519.81;;;0.47
20490;BMP280;10403;54.092;12.122;2024-01-16T07:44:24;100519.81;;;0.47
20490;BMP280;10403;54.092;12.122;2024-01-16T07:46:51;100422.22;;;-0.19
20490;BMP280;10403;54.092;12.122;2024-01-16T07:49:19;100439.69;;;-0.06
20490;BMP280;10403;54.092;12.122;2024-01-16T07:51:46;100561.31;;;0.62
20490;BMP280;10403;54.092;12.122;2024-01-16T07:54:14;100564.69;;;0.59
20490;BMP280;10403;54.092;12.122;2024-01-16T07:56:41;100581.03;;;0.61
20490;BMP280;10403;54.092;12.122;2024-01-16T07:59:09;100603.59;;;0.71
20490;BMP280;10403;54.092;12.122;2024-01-16T08:01:36;100435.78;;;-0.26
20490;BMP280;10403;54.092;12.122;2024-01-16T08:04:05;100616.59;;;0.76
20490;BMP280;10403;54.092;12.122;2024-01-16T08:06:32;100616.63;;;0.79
20490;BMP280;10403;54.092;12.122;2024-01-16T08:09:00;100564.38;;;0.46
20490;BMP280;10403;54.092;12.122;2024-01-16T08:11:28;100620.91;;;0.79
20490;BMP280;10403;54.092;12.122;2024-01-16T08:13:56;100503.41;;;0.06
20490;BMP280;10403;54.092;12.122;2024-01-16T08:16:24;100528.78;;;0.26
20490;BMP280;10403;54.092;12.122;2024-01-16T08:18:51;100622.56;;;0.75
20490;BMP280;10403;54.092;12.122;2024-01-16T08:21:19;100618.25;;;0.74
20490;BMP280;10403;54.092;12.122;2024-01-16T08:23:46;100616.50;;;0.73
20490;BMP280;10403;54.092;12.122;2024-01-16T08:26:14;100609.66;;;0.73
20490;BMP280;10403;54.092;12.122;2024-01-16T08:28:43;100459.06;;;-0.20
20490;BMP280;10403;54.092;12.122;2024-01-16T08:31:10;100622.56;;;0.75
20490;BMP280;10403;54.092;12.122;2024-01-16T08:33:37;100536.47;;;0.26
20490;BMP280;10403;54.092;12.122;2024-01-16T08:36:14;100457.47;;;-0.15
20490;BMP280;10403;54.092;12.122;2024-01-16T08:38:42;100609.69;;;0.75
20490;BMP280;10403;54.092;12.122;2024-01-16T08:41:10;100562.66;;;0.45
20490;BMP280;10403;54.092;12.122;2024-01-16T08:43:38;100626.88;;;0.76
20490;BMP280;10403;54.092;12.122;2024-01-16T08:46:05;100617.47;;;0.77
20490;BMP280;10403;54.092;12.122;2024-01-16T08:48:34;100500.91;;;0.10
20490;BMP280;10403;54.092;12.122;2024-01-16T08:51:10;100605.34;;;0.72
20490;BMP280;10403;54.092;12.122;2024-01-16T08:53:40;100614.91;;;0.78
20490;BMP280;10403;54.092;12.122;2024-01-16T08:56:07;100449.53;;;-0.24
20490;BMP280;10403;54.092;12.122;2024-01-16T08:58:36;100534.75;;;0.25
20490;BMP280;10403;54.092;12.122;2024-01-16T09:01:05;100602.66;;;0.68
20490;BMP280;10403;54.092;12.122;2024-01-16T09:03:35;100559.94;;;0.40
20490;BMP280;10403;54.092;12.122;2024-01-16T09:06:03;100616.63;;;0.78
20490;BMP280;10403;54.092;12.122;2024-01-16T09:08:32;100605.25;;;0.69
20490;BMP280;10403;54.092;12.122;2024-01-16T09:10:59;100621.88;;;0.82
20490;BMP280;10403;54.092;12.122;2024-01-16T09:13:29;100590.69;;;0.70
20490;BMP280;10403;54.092;12.122;2024-01-16T09:15:57;100539.41;;;0.42
20490;BMP280;10403;54.092;12.122;2024-01-16T09:18:25;100633.38;;;0.96
20490;BMP280;10403;54.092;12.122;2024-01-16T09:20:53;100608.13;;;0.82
20490;BMP280;10403;54.092;12.122;2024-01-16T09:23:22;100623.94;;;0.98
20490;BMP280;10403;54.092;12.122;2024-01-16T09:25:49;100622.16;;;0.94
20490;BMP280;10403;54.092;12.122;2024-01-16T09:28:17;100639.56;;;1.04
20490;BMP280;10403;54.092;12.122;2024-01-16T09:30:45;100607.41;;;0.89
20490;BMP280;10403;54.092;12.122;2024-01-16T09:33:13;100611.81;;;0.93
20490;BMP280;10403;54.092;12.122;2024-01-16T09:35:41;100628.25;;;0.99
20490;BMP280;10403;54.092;12.122;2024-01-16T09:38:09;100582.28;;;0.77
20490;BMP280;10403;54.092;12.122;2024-01-16T09:40:36;100577.19;;;0.80
20490;BMP280;10403;54.092;12.122;2024-01-16T09:43:04;100611.88;;;0.96
20490;BMP280;10403;54.092;12.122;2024-01-16T09:45:33;100631.00;;;1.05
20490;BMP280;10403;54.092;12.122;2024-01-16T09:48:02;100566.69;;;0.71
20490;BMP280;10403;54.092;12.122;2024-01-16T09:50:31;100635.50;;;1.16
20490;BMP280;10403;54.092;12.122;2024-01-16T09:52:59;100628.66;;;1.18
20490;BMP280;10403;54.092;12.122;2024-01-16T09:55:27;100548.78;;;0.76
20490;BMP280;10403;54.092;12.122;2024-01-16T09:57:55;100614.06;;;1.17
20490;BMP280;10403;54.092;12.122;2024-01-16T10:00:24;100580.28;;;1.03
20490;BMP280;10403;54.092;12.122;2024-01-16T10:02:53;100587.25;;;1.08
20490;BMP280;10403;54.092;12.122;2024-01-16T10:05:26;100576.16;;;1.11
20490;BMP280;10403;54.092;12.122;2024-01-16T10:07:54;100596.28;;;1.27
20490;BMP280;10403;54.092;12.122;2024-01-16T10:10:22;100599.78;;;1.32
20490;BMP280;10403;54.092;12.122;2024-01-16T10:13:04;100608.47;;;1.37
20490;BMP280;10403;54.092;12.122;2024-01-16T10:15:32;100613.81;;;1.45
20490;BMP280;10403;54.092;12.122;2024-01-16T10:17:59;100595.59;;;1.37
20490;BMP280;10403;54.092;12.122;2024-01-16T10:20:34;100616.44;;;1.48
20490;BMP280;10403;54.092;12.122;2024-01-16T10:23:02;100600.09;;;1.46
20490;BMP280;10403;54.092;12.122;2024-01-16T10:25:32;100603.50;;;1.45
20490;BMP280;10403;54.092;12.122;2024-01-16T10:28:05;100563.59;;;1.26
20490;BMP280;10403;54.092;12.122;2024-01-16T10:30:34;100557.50;;;1.23
20490;BMP280;10403;54.092;12.122;2024-01-16T10:33:15;100601.09;;;1.54
20490;BMP280;10403;54.092;12.122;2024-01-16T10:35:44;100602.00;;;1.56
20490;BMP280;10403;54.092;12.122;2024-01-16T10:38:20;100586.34;;;1.45
20490;BMP280;10403;54.092;12.122;2024-01-16T10:41:05;100601.06;;;1.53
20490;BMP280;10403;54.092;12.122;2024-01-16T10:43:33;100594.19;;;1.52
20490;BMP280;10403;54.092;12.122;2024-01-16T10:46:15;100603.69;;;1.54
20490;BMP280;10403;54.092;12.122;2024-01-16T10:48:58;100600.31;;;1.57
20490;BMP280;10403;54.092;12.122;2024-01-16T10:51:27;100591.75;;;1.59
20490;BMP280;10403;54.092;12.122;2024-01-16T10:54:05;100587.47;;;1.60
20490;BMP280;10403;54.092;12.122;2024-01-16T10:56:35;100582.25;;;1.58
20490;BMP280;10403;54.092;12.122;2024-01-16T10:59:25;100591.81;;;1.62
20490;BMP280;10403;54.092;12.122;2024-01-16T11:01:59;100592.63;;;1.60
20490;BMP280;10403;54.092;12.122;2024-01-16T11:04:28;100584.84;;;1.57
20490;BMP280;10403;54.092;12.122;2024-01-16T11:06:56;100575.25;;;1.51
20490;BMP280;10403;54.092;12.122;2024-01-16T11:09:25;100573.63;;;1.55
20490;BMP280;10403;54.092;12.122;2024-01-16T11:11:55;100590.03;;;1.60
20490;BMP280;10403;54.092;12.122;2024-01-16T11:14:25;100594.38;;;1.62
20490;BMP280;10403;54.092;12.122;2024-01-16T11:16:56;100595.22;;;1.61
20490;BMP280;10403;54.092;12.122;2024-01-16T11:19:25;100587.34;;;1.54
20490;BMP280;10403;54.092;12.122;2024-01-16T11:22:18;100574.38;;;1.51
20490;BMP280;10403;54.092;12.122;2024-01-16T11:25:17;100593.56;;;1.63
20490;BMP280;10403;54.092;12.122;2024-01-16T11:27:46;100590.91;;;1.60
20490;BMP280;10403;54.092;12.122;2024-01-16T11:30:30;100582.34;;;1.61
20490;BMP280;10403;54.092;12.122;2024-01-16T11:33:01;100571.00;;;1.53
20490;BMP280;10403;54.092;12.122;2024-01-16T11:35:37;100572.75;;;1.54
20490;BMP280;10403;54.092;12.122;2024-01-16T11:38:16;100590.03;;;1.60
20490;BMP280;10403;54.092;12.122;2024-01-16T11:40:45;100584.88;;;1.60
20490;BMP280;10403;54.092;12.122;2024-01-16T11:46:07;100574.69;;;1.67
20490;BMP280;10403;54.092;12.122;2024-01-16T11:48:36;100564.31;;;1.63
20490;BMP280;10403;54.092;12.122;2024-01-16T11:51:25;100576.56;;;1.73
20490;BMP280;10403;54.092;12.122;2024-01-16T11:53:53;100572.25;;;1.73
20490;BMP280;10403;54.092;12.122;2024-01-16T11:59:55;100581.00;;;1.81
20490;BMP280;10403;54.092;12.122;2024-01-16T12:02:53;100582.78;;;1.84
20490;BMP280;10403;54.092;12.122;2024-01-16T12:05:21;100574.97;;;1.81
20490;BMP280;10403;54.092;12.122;2024-01-16T12:07:51;100514.09;;;1.42
20490;BMP280;10403;54.092;12.122;2024-01-16T12:10:23;100582.75;;;1.82
20490;BMP280;10403;54.092;12.122;2024-01-16T12:12:58;100569.75;;;1.78
20490;BMP280;10403;54.092;12.122;2024-01-16T12:15:31;100579.28;;;1.82
20490;BMP280;10403;54.092;12.122;2024-01-16T12:18:01;100575.84;;;1.81
20490;BMP280;10403;54.092;12.122;2024-01-16T12:20:34;100576.69;;;1.80
20490;BMP280;10403;54.092;12.122;2024-01-16T12:23:04;100569.88;;;1.84
20490;BMP280;10403;54.092;12.122;2024-01-16T12:25:35;100569.06;;;1.85
20490;BMP280;10403;54.092;12.122;2024-01-16T12:28:23;100572.50;;;1.85
20490;BMP280;10403;54.092;12.122;2024-01-16T12:31:00;100569.91;;;1.87
20490;BMP280;10403;54.092;12.122;2024-01-16T12:33:29;100574.19;;;1.86
20490;BMP280;10403;54.092;12.122;2024-01-16T12:36:03;100563.06;;;1.86
20490;BMP280;10403;54.092;12.122;2024-01-16T12:38:32;100563.94;;;1.90
20490;BMP280;10403;54.092;12.122;2024-01-16T12:41:01;100565.63;;;1.86
20490;BMP280;10403;54.092;12.122;2024-01-16T12:43:32;100563.84;;;1.83
20490;BMP280;10403;54.092;12.122;2024-01-16T12:46:00;100552.56;;;1.78
20490;BMP280;10403;54.092;12.122;2024-01-16T12:48:29;100562.19;;;1.85
20490;BMP280;10403;54.092;12.122;2024-01-16T12:51:02;100560.44;;;1.84
20490;BMP280;10403;54.092;12.122;2024-01-16T12:53:32;100556.00;;;1.77
20490;BMP280;10403;54.092;12.122;2024-01-16T12:56:04;100525.59;;;1.60
20490;BMP280;10403;54.092;12.122;2024-01-16T12:58:36;100566.47;;;1.85
20490;BMP280;10403;54.092;12.122;2024-01-16T13:01:24;100558.69;;;1.83
20490;BMP280;10403;54.092;12.122;2024-01-16T13:03:55;100566.56;;;1.91
20490;BMP280;10403;54.092;12.122;2024-01-16T13:06:23;100561.31;;;1.86
20490;BMP280;10403;54.092;12.122;2024-01-16T13:09:08;100571.81;;;1.97
20490;BMP280;10403;54.092;12.122;2024-01-16T13:14:15;100561.53;;;1.99
20490;BMP280;10403;54.092;12.122;2024-01-16T13:16:42;100564.28;;;2.08
20490;BMP280;10403;54.092;12.122;2024-01-16T13:19:10;100570.41;;;2.13
20490;BMP280;10403;54.092;12.122;2024-01-16T13:21:38;100542.75;;;2.07
20490;BMP280;10403;54.092;12.122;2024-01-16T13:24:07;100564.44;;;2.17
20490;BMP280;10403;54.092;12.122;2024-01-16T13:26:36;100548.03;;;2.12
20490;BMP280;10403;54.092;12.122;2024-01-16T13:29:04;100547.13;;;2.10
20490;BMP280;10403;54.092;12.122;2024-01-16T13:31:33;100533.22;;;2.02
20490;BMP280;10403;54.092;12.122;2024-01-16T13:34:00;100547.97;;;2.09
20490;BMP280;10403;54.092;12.122;2024-01-16T13:36:28;100556.59;;;2.11
20490;BMP280;10403;54.092;12.122;2024-01-16T13:39:15;100538.28;;;1.97
20490;BMP280;10403;54.092;12.122;2024-01-16T13:41:43;100563.47;;;2.10
20490;BMP280;10403;54.092;12.122;2024-01-16T13:44:15;100560.06;;;2.13
20490;BMP280;10403;54.092;12.122;2024-01-16T13:46:44;100554.94;;;2.14
20490;BMP280;10403;54.092;12.122;2024-01-16T13:49:31;100545.38;;;2.09
20490;BMP280;10403;54.092;12.122;2024-01-16T13:52:02;100527.25;;;2.06
20490;BMP280;10403;54.092;12.122;2024-01-16T13:54:31;100551.59;;;2.20
20490;BMP280;10403;54.092;12.122;2024-01-16T13:56:58;100554.16;;;2.20
20490;BMP280;10403;54.092;12.122;2024-01-16T13:59:35;100555.94;;;2.22
20490;BMP280;10403;54.092;12.122;2024-01-16T14:02:03;100555.91;;;2.21
20490;BMP280;10403;54.092;12.122;2024-01-16T14:04:35;100550.69;;;2.18
20490;BMP280;10403;54.092;12.122;2024-01-16T14:07:03;100561.16;;;2.27
20490;BMP280;10403;54.092;12.122;2024-01-16T14:09:41;100564.63;;;2.29
20490;BMP280;10403;54.092;12.122;2024-01-16T14:12:27;100565.53;;;2.31
20490;BMP280;10403;54.092;12.122;2024-01-16T14:14:55;100554.22;;;2.23
20490;BMP280;10403;54.092;12.122;2024-01-16T14:17:23;100565.50;;;2.30